sensor_id;sensor_type;location;lat;lon;timestamp;temperature;humidity
4487;DHT22;2256;48.740;9.106;2022-09-06T00:00:53;18.70;99.90
4487;DHT22;2256;48.740;9.106;2022-09-06T00:03:20;18.70;99.90
4487;DHT22;2256;48.740;9.106;2022-09-06T00:05:47;18.70;99.90
4487;DHT22;2256;48.740;9.106;2022-09-06T00:08:14;18.60;99.90
4487;DHT22;2256;48.740;9.106;2022-09-06T00:10:42;18.60;99.90
4487;DHT22;2256;48.740;9.106;2022-09-06T00:13:09;18.50;99.90
4487;DHT22;2256;48.740;9.106;2022-09-06T00:15:38;18.40;99.90
4487;DHT22;2256;48.740;9.106;2022-09-06T00:18:06;18.40;99.90
4487;DHT22;2256;48.740;9.106;2022-09-06T00:20:33;18.40;99.90
4487;DHT22;2256;48.740;9.106;2022-09-06T00:23:03;18.30;99.90
4487;DHT22;2256;48.740;9.106;2022-09-06T00:25:31;18.30;99.90
4487;DHT22;2256;48.740;9.106;2022-09-06T00:28:00;18.20;99.90
4487;DHT22;2256;48.740;9.106;2022-09-06T00:30:27;18.20;99.90
4487;DHT22;2256;48.740;9.106;2022-09-06T00:32:56;18.10;99.90
4487;DHT22;2256;48.740;9.106;2022-09-06T00:35:24;18.10;99.90
4487;DHT22;2256;48.740;9.106;2022-09-06T00:37:55;18.10;99.90
4487;DHT22;2256;48.740;9.106;2022-09-06T00:40:22;18.00;99.90
4487;DHT22;2256;48.740;9.106;2022-09-06T00:42:49;18.00;99.90
4487;DHT22;2256;48.740;9.106;2022-09-06T00:45:16;17.80;99.90
4487;DHT22;2256;48.740;9.106;2022-09-06T00:47:44;17.70;99.90
4487;DHT22;2256;48.740;9.106;2022-09-06T00:50:14;17.80;99.90
4487;DHT22;2256;48.740;9.106;2022-09-06T00:52:44;17.80;99.90
4487;DHT22;2256;48.740;9.106;2022-09-06T00:55:13;17.80;99.90
4487;DHT22;2256;48.740;9.106;2022-09-06T00:57:40;17.80;99.90
4487;DHT22;2256;48.740;9.106;2022-09-06T01:00:08;17.70;99.90
4487;DHT22;2256;48.740;9.106;2022-09-06T01:02:35;17.70;99.90
4487;DHT22;2256;48.740;9.106;2022-09-06T01:05:03;17.60;99.90
4487;DHT22;2256;48.740;9.106;2022-09-06T01:07:42;17.60;99.90
4487;DHT22;2256;48.740;9.106;2022-09-06T01:10:31;17.50;99.90
4487;DHT22;2256;48.740;9.106;2022-09-06T01:13:09;17.60;99.90
4487;DHT22;2256;48.740;9.106;2022-09-06T01:15:44;17.50;99.90
4487;DHT22;2256;48.740;9.106;2022-09-06T01:18:22;17.40;99.90
4487;DHT22;2256;48.740;9.106;2022-09-06T01:21:06;17.40;99.90
4487;DHT22;2256;48.740;9.106;2022-09-06T01:24:16;17.40;99.90
4487;DHT22;2256;48.740;9.106;2022-09-06T01:27:14;17.50;99.90
4487;DHT22;2256;48.740;9.106;2022-09-06T01:29:47;17.60;99.90
4487;DHT22;2256;48.740;9.106;2022-09-06T01:32:21;17.70;99.90
4487;DHT22;2256;48.740;9.106;2022-09-06T01:34:52;17.70;99.90
4487;DHT22;2256;48.740;9.106;2022-09-06T01:37:22;17.70;99.90
4487;DHT22;2256;48.740;9.106;2022-09-06T01:39:49;17.70;99.90
4487;DHT22;2256;48.740;9.106;2022-09-06T01:42:18;17.70;99.90
4487;DHT22;2256;48.740;9.106;2022-09-06T01:44:50;17.70;99.90
4487;DHT22;2256;48.740;9.106;2022-09-06T01:47:27;17.90;99.90
4487;DHT22;2256;48.740;9.106;2022-09-06T01:50:31;17.90;99.90
4487;DHT22;2256;48.740;9.106;2022-09-06T01:53:07;18.00;99.90
4487;DHT22;2256;48.740;9.106;2022-09-06T01:55:42;18.00;99.90
4487;DHT22;2256;48.740;9.106;2022-09-06T01:58:31;18.00;99.90
4487;DHT22;2256;48.740;9.106;2022-09-06T02:01:06;18.00;99.90
4487;DHT22;2256;48.740;9.106;2022-09-06T02:03:47;18.00;99.90
4487;DHT22;2256;48.740;9.106;2022-09-06T02:06:20;18.00;99.90
4487;DHT22;2256;48.740;9.106;2022-09-06T02:08:52;18.00;99.90
4487;DHT22;2256;48.740;9.106;2022-09-06T02:11:23;18.10;99.90
4487;DHT22;2256;48.740;9.106;2022-09-06T02:13:52;18.20;99.90
4487;DHT22;2256;48.740;9.106;2022-09-06T02:16:24;18.30;99.90
4487;DHT22;2256;48.740;9.106;2022-09-06T02:18:55;18.50;99.90
4487;DHT22;2256;48.740;9.106;2022-09-06T02:21:28;18.50;99.90
4487;DHT22;2256;48.740;9.106;2022-09-06T02:23:58;18.30;99.90
4487;DHT22;2256;48.740;9.106;2022-09-06T02:26:27;18.10;99.90
4487;DHT22;2256;48.740;9.106;2022-09-06T02:28:55;18.10;99.90
4487;DHT22;2256;48.740;9.106;2022-09-06T02:31:27;18.00;99.90
4487;DHT22;2256;48.740;9.106;2022-09-06T02:33:54;18.10;99.90
4487;DHT22;2256;48.740;9.106;2022-09-06T02:36:22;18.00;99.90
4487;DHT22;2256;48.740;9.106;2022-09-06T02:38:49;18.10;99.90
4487;DHT22;2256;48.740;9.106;2022-09-06T02:41:19;18.20;99.90
4487;DHT22;2256;48.740;9.106;2022-09-06T02:43:48;18.30;99.90
4487;DHT22;2256;48.740;9.106;2022-09-06T02:46:16;18.30;99.90
4487;DHT22;2256;48.740;9.106;2022-09-06T02:48:44;18.30;99.90
4487;DHT22;2256;48.740;9.106;2022-09-06T02:51:12;18.40;99.90
4487;DHT22;2256;48.740;9.106;2022-09-06T02:53:39;18.20;99.90
4487;DHT22;2256;48.740;9.106;2022-09-06T02:56:05;18.10;99.90
4487;DHT22;2256;48.740;9.106;2022-09-06T02:58:32;18.20;99.90
4487;DHT22;2256;48.740;9.106;2022-09-06T03:00:59;18.10;99.90
4487;DHT22;2256;48.740;9.106;2022-09-06T03:03:26;18.00;99.90
4487;DHT22;2256;48.740;9.106;2022-09-06T03:05:55;18.00;99.90
4487;DHT22;2256;48.740;9.106;2022-09-06T03:08:23;18.10;99.90
4487;DHT22;2256;48.740;9.106;2022-09-06T03:10:52;18.00;99.90
4487;DHT22;2256;48.740;9.106;2022-09-06T03:13:19;18.00;99.90
4487;DHT22;2256;48.740;9.106;2022-09-06T03:15:49;18.00;99.90
4487;DHT22;2256;48.740;9.106;2022-09-06T03:18:16;17.90;99.90
4487;DHT22;2256;48.740;9.106;2022-09-06T03:20:43;17.80;99.90
4487;DHT22;2256;48.740;9.106;2022-09-06T03:23:11;17.80;99.90
4487;DHT22;2256;48.740;9.106;2022-09-06T03:25:38;17.80;99.90
4487;DHT22;2256;48.740;9.106;2022-09-06T03:28:05;17.90;99.90
4487;DHT22;2256;48.740;9.106;2022-09-06T03:30:32;17.80;99.90
4487;DHT22;2256;48.740;9.106;2022-09-06T03:32:58;17.90;99.90
4487;DHT22;2256;48.740;9.106;2022-09-06T03:35:25;17.90;99.90
4487;DHT22;2256;48.740;9.106;2022-09-06T03:37:52;17.90;99.90
4487;DHT22;2256;48.740;9.106;2022-09-06T03:40:20;17.80;99.90
4487;DHT22;2256;48.740;9.106;2022-09-06T03:42:47;17.70;99.90
4487;DHT22;2256;48.740;9.106;2022-09-06T03:45:14;17.50;99.90
4487;DHT22;2256;48.740;9.106;2022-09-06T03:47:40;17.30;99.90
4487;DHT22;2256;48.740;9.106;2022-09-06T03:50:08;17.30;99.90
4487;DHT22;2256;48.740;9.106;2022-09-06T03:52:35;17.20;99.90
4487;DHT22;2256;48.740;9.106;2022-09-06T03:55:01;17.20;99.90
4487;DHT22;2256;48.740;9.106;2022-09-06T03:57:30;17.20;99.90
4487;DHT22;2256;48.740;9.106;2022-09-06T03:59:57;17.10;99.90
4487;DHT22;2256;48.740;9.106;2022-09-06T04:02:24;17.20;99.90
4487;DHT22;2256;48.740;9.106;2022-09-06T04:04:50;17.10;99.90
4487;DHT22;2256;48.740;9.106;2022-09-06T04:07:20;17.20;99.90
4487;DHT22;2256;48.740;9.106;2022-09-06T04:09:46;17.10;99.90
4487;DHT22;2256;48.740;9.106;2022-09-06T04:12:13;17.00;99.90
4487;DHT22;2256;48.740;9.106;2022-09-06T04:14:41;17.20;99.90
4487;DHT22;2256;48.740;9.106;2022-09-06T04:17:08;17.20;99.90
4487;DHT22;2256;48.740;9.106;2022-09-06T04:19:36;17.20;99.90
4487;DHT22;2256;48.740;9.106;2022-09-06T04:22:03;17.30;99.90
4487;DHT22;2256;48.740;9.106;2022-09-06T04:24:30;17.40;99.90
4487;DHT22;2256;48.740;9.106;2022-09-06T04:26:57;17.30;99.90
4487;DHT22;2256;48.740;9.106;2022-09-06T04:29:24;17.30;99.90
4487;DHT22;2256;48.740;9.106;2022-09-06T04:31:52;17.30;99.90
4487;DHT22;2256;48.740;9.106;2022-09-06T04:34:19;17.30;99.90
4487;DHT22;2256;48.740;9.106;2022-09-06T04:36:45;17.40;99.90
4487;DHT22;2256;48.740;9.106;2022-09-06T04:39:12;17.40;99.90
4487;DHT22;2256;48.740;9.106;2022-09-06T04:41:39;17.30;99.90
4487;DHT22;2256;48.740;9.106;2022-09-06T04:44:06;17.30;99.90
4487;DHT22;2256;48.740;9.106;2022-09-06T04:46:33;17.30;99.90
4487;DHT22;2256;48.740;9.106;2022-09-06T04:49:02;17.30;99.90
4487;DHT22;2256;48.740;9.106;2022-09-06T04:51:29;17.30;99.90
4487;DHT22;2256;48.740;9.106;2022-09-06T04:53:56;17.50;99.90
4487;DHT22;2256;48.740;9.106;2022-09-06T04:56:24;17.50;99.90
4487;DHT22;2256;48.740;9.106;2022-09-06T04:58:52;17.40;99.90
4487;DHT22;2256;48.740;9.106;2022-09-06T05:01:20;17.30;99.90
4487;DHT22;2256;48.740;9.106;2022-09-06T05:03:47;17.20;99.90
4487;DHT22;2256;48.740;9.106;2022-09-06T05:06:20;17.30;99.90
4487;DHT22;2256;48.740;9.106;2022-09-06T05:08:48;17.50;99.90
4487;DHT22;2256;48.740;9.106;2022-09-06T05:11:15;17.60;99.90
4487;DHT22;2256;48.740;9.106;2022-09-06T05:13:44;17.60;99.90
4487;DHT22;2256;48.740;9.106;2022-09-06T05:16:11;17.40;99.90
4487;DHT22;2256;48.740;9.106;2022-09-06T05:18:38;17.40;99.90
4487;DHT22;2256;48.740;9.106;2022-09-06T05:21:05;17.30;99.90
4487;DHT22;2256;48.740;9.106;2022-09-06T05:23:33;17.30;99.90
4487;DHT22;2256;48.740;9.106;2022-09-06T05:26:00;17.40;99.90
4487;DHT22;2256;48.740;9.106;2022-09-06T05:28:27;17.40;99.90
4487;DHT22;2256;48.740;9.106;2022-09-06T05:31:04;17.40;99.90
4487;DHT22;2256;48.740;9.106;2022-09-06T05:33:31;17.40;99.90
4487;DHT22;2256;48.740;9.106;2022-09-06T05:35:58;17.40;99.90
4487;DHT22;2256;48.740;9.106;2022-09-06T05:38:25;17.40;99.90
4487;DHT22;2256;48.740;9.106;2022-09-06T05:40:53;17.40;99.90
4487;DHT22;2256;48.740;9.106;2022-09-06T05:43:20;17.40;99.90
4487;DHT22;2256;48.740;9.106;2022-09-06T05:45:46;17.50;99.90
4487;DHT22;2256;48.740;9.106;2022-09-06T05:48:13;17.50;99.90
4487;DHT22;2256;48.740;9.106;2022-09-06T05:50:40;17.60;99.90
4487;DHT22;2256;48.740;9.106;2022-09-06T05:53:07;17.80;99.90
4487;DHT22;2256;48.740;9.106;2022-09-06T05:55:34;18.00;99.90
4487;DHT22;2256;48.740;9.106;2022-09-06T05:58:02;18.10;99.90
4487;DHT22;2256;48.740;9.106;2022-09-06T06:00:29;18.20;99.90
4487;DHT22;2256;48.740;9.106;2022-09-06T06:02:55;18.30;99.90
4487;DHT22;2256;48.740;9.106;2022-09-06T06:05:22;18.40;99.90
4487;DHT22;2256;48.740;9.106;2022-09-06T06:07:49;18.50;99.90
4487;DHT22;2256;48.740;9.106;2022-09-06T06:10:16;18.60;99.90
4487;DHT22;2256;48.740;9.106;2022-09-06T06:12:43;18.70;99.90
4487;DHT22;2256;48.740;9.106;2022-09-06T06:15:11;18.70;99.90
4487;DHT22;2256;48.740;9.106;2022-09-06T06:17:38;18.80;99.90
4487;DHT22;2256;48.740;9.106;2022-09-06T06:20:06;18.80;99.90
4487;DHT22;2256;48.740;9.106;2022-09-06T06:22:33;18.90;99.90
4487;DHT22;2256;48.740;9.106;2022-09-06T06:24:59;19.00;99.90
4487;DHT22;2256;48.740;9.106;2022-09-06T06:27:26;19.10;99.90
4487;DHT22;2256;48.740;9.106;2022-09-06T06:29:53;19.10;99.90
4487;DHT22;2256;48.740;9.106;2022-09-06T06:32:21;19.30;99.90
4487;DHT22;2256;48.740;9.106;2022-09-06T06:34:48;19.50;99.90
4487;DHT22;2256;48.740;9.106;2022-09-06T06:37:14;19.80;99.90
4487;DHT22;2256;48.740;9.106;2022-09-06T06:39:41;20.40;99.90
4487;DHT22;2256;48.740;9.106;2022-09-06T06:42:08;21.00;99.90
4487;DHT22;2256;48.740;9.106;2022-09-06T06:44:35;20.90;99.90
4487;DHT22;2256;48.740;9.106;2022-09-06T06:47:01;21.80;99.90
4487;DHT22;2256;48.740;9.106;2022-09-06T06:49:30;23.60;99.90
4487;DHT22;2256;48.740;9.106;2022-09-06T06:51:57;25.10;99.90
4487;DHT22;2256;48.740;9.106;2022-09-06T06:54:23;26.10;99.90
4487;DHT22;2256;48.740;9.106;2022-09-06T06:56:51;26.90;99.90
4487;DHT22;2256;48.740;9.106;2022-09-06T06:59:18;27.90;98.10
4487;DHT22;2256;48.740;9.106;2022-09-06T07:01:45;28.60;96.10
4487;DHT22;2256;48.740;9.106;2022-09-06T07:04:14;29.30;94.70
4487;DHT22;2256;48.740;9.106;2022-09-06T07:06:50;29.70;93.00
4487;DHT22;2256;48.740;9.106;2022-09-06T07:09:17;29.50;93.00
4487;DHT22;2256;48.740;9.106;2022-09-06T07:11:45;30.00;92.50
4487;DHT22;2256;48.740;9.106;2022-09-06T07:14:13;30.30;92.00
4487;DHT22;2256;48.740;9.106;2022-09-06T07:16:40;30.50;91.60
4487;DHT22;2256;48.740;9.106;2022-09-06T07:19:07;30.20;90.80
4487;DHT22;2256;48.740;9.106;2022-09-06T07:21:34;30.40;91.50
4487;DHT22;2256;48.740;9.106;2022-09-06T07:24:04;30.60;90.40
4487;DHT22;2256;48.740;9.106;2022-09-06T07:26:32;30.30;90.40
4487;DHT22;2256;48.740;9.106;2022-09-06T07:29:00;29.90;90.60
4487;DHT22;2256;48.740;9.106;2022-09-06T07:31:28;29.30;90.90
4487;DHT22;2256;48.740;9.106;2022-09-06T07:33:55;28.60;91.50
4487;DHT22;2256;48.740;9.106;2022-09-06T07:36:22;28.30;92.10
4487;DHT22;2256;48.740;9.106;2022-09-06T07:38:49;28.10;92.40
4487;DHT22;2256;48.740;9.106;2022-09-06T07:41:18;28.40;92.70
4487;DHT22;2256;48.740;9.106;2022-09-06T07:43:45;28.60;91.80
4487;DHT22;2256;48.740;9.106;2022-09-06T07:46:13;29.00;91.60
4487;DHT22;2256;48.740;9.106;2022-09-06T07:48:42;29.80;90.90
4487;DHT22;2256;48.740;9.106;2022-09-06T07:51:11;30.20;90.30
4487;DHT22;2256;48.740;9.106;2022-09-06T07:53:39;31.10;89.30
4487;DHT22;2256;48.740;9.106;2022-09-06T07:56:08;32.00;87.10
4487;DHT22;2256;48.740;9.106;2022-09-06T07:58:38;32.50;85.90
4487;DHT22;2256;48.740;9.106;2022-09-06T08:01:32;33.00;83.40
4487;DHT22;2256;48.740;9.106;2022-09-06T08:04:01;33.20;83.10
4487;DHT22;2256;48.740;9.106;2022-09-06T08:06:30;33.10;82.40
4487;DHT22;2256;48.740;9.106;2022-09-06T08:08:58;32.50;82.50
4487;DHT22;2256;48.740;9.106;2022-09-06T08:11:27;32.00;84.00
4487;DHT22;2256;48.740;9.106;2022-09-06T08:13:57;32.10;83.50
4487;DHT22;2256;48.740;9.106;2022-09-06T08:16:25;31.60;84.00
4487;DHT22;2256;48.740;9.106;2022-09-06T08:18:54;31.80;83.50
4487;DHT22;2256;48.740;9.106;2022-09-06T08:21:23;31.80;84.40
4487;DHT22;2256;48.740;9.106;2022-09-06T08:23:52;32.30;83.50
4487;DHT22;2256;48.740;9.106;2022-09-06T08:26:21;32.70;82.80
4487;DHT22;2256;48.740;9.106;2022-09-06T08:28:52;32.60;81.50
4487;DHT22;2256;48.740;9.106;2022-09-06T08:31:20;32.40;82.20
4487;DHT22;2256;48.740;9.106;2022-09-06T08:33:47;32.80;82.50
4487;DHT22;2256;48.740;9.106;2022-09-06T08:36:14;33.00;81.50
4487;DHT22;2256;48.740;9.106;2022-09-06T08:38:41;32.90;81.50
4487;DHT22;2256;48.740;9.106;2022-09-06T08:41:10;33.00;82.00
4487;DHT22;2256;48.740;9.106;2022-09-06T08:43:38;33.20;81.20
4487;DHT22;2256;48.740;9.106;2022-09-06T08:46:06;33.00;81.90
4487;DHT22;2256;48.740;9.106;2022-09-06T08:48:36;32.90;81.50
4487;DHT22;2256;48.740;9.106;2022-09-06T08:51:36;33.10;81.20
4487;DHT22;2256;48.740;9.106;2022-09-06T08:54:11;33.30;80.20
4487;DHT22;2256;48.740;9.106;2022-09-06T08:57:00;33.40;80.10
4487;DHT22;2256;48.740;9.106;2022-09-06T08:59:35;33.60;79.90
4487;DHT22;2256;48.740;9.106;2022-09-06T09:02:09;33.90;79.70
4487;DHT22;2256;48.740;9.106;2022-09-06T09:04:41;34.30;79.20
4487;DHT22;2256;48.740;9.106;2022-09-06T09:07:23;34.70;78.40
4487;DHT22;2256;48.740;9.106;2022-09-06T09:09:51;35.00;77.70
4487;DHT22;2256;48.740;9.106;2022-09-06T09:12:22;34.10;78.30
4487;DHT22;2256;48.740;9.106;2022-09-06T09:14:51;33.50;79.90
4487;DHT22;2256;48.740;9.106;2022-09-06T09:17:23;33.20;80.30
4487;DHT22;2256;48.740;9.106;2022-09-06T09:19:53;32.50;81.90
4487;DHT22;2256;48.740;9.106;2022-09-06T09:22:21;31.80;83.50
4487;DHT22;2256;48.740;9.106;2022-09-06T09:24:49;31.10;85.60
4487;DHT22;2256;48.740;9.106;2022-09-06T09:27:18;30.50;86.30
4487;DHT22;2256;48.740;9.106;2022-09-06T09:29:57;30.00;87.60
4487;DHT22;2256;48.740;9.106;2022-09-06T09:32:29;29.60;88.50
4487;DHT22;2256;48.740;9.106;2022-09-06T09:35:15;29.60;89.60
4487;DHT22;2256;48.740;9.106;2022-09-06T09:37:42;29.90;89.10
4487;DHT22;2256;48.740;9.106;2022-09-06T09:40:13;30.60;88.50
4487;DHT22;2256;48.740;9.106;2022-09-06T09:42:40;31.90;86.40
4487;DHT22;2256;48.740;9.106;2022-09-06T09:45:24;32.90;84.30
4487;DHT22;2256;48.740;9.106;2022-09-06T09:47:51;34.00;83.40
4487;DHT22;2256;48.740;9.106;2022-09-06T09:50:25;34.50;80.50
4487;DHT22;2256;48.740;9.106;2022-09-06T09:52:52;34.50;80.00
4487;DHT22;2256;48.740;9.106;2022-09-06T09:55:21;34.70;79.90
4487;DHT22;2256;48.740;9.106;2022-09-06T09:57:49;34.90;78.60
4487;DHT22;2256;48.740;9.106;2022-09-06T10:00:32;34.50;79.80
4487;DHT22;2256;48.740;9.106;2022-09-06T10:03:00;33.90;79.50
4487;DHT22;2256;48.740;9.106;2022-09-06T10:05:38;33.60;80.90
4487;DHT22;2256;48.740;9.106;2022-09-06T10:08:09;33.40;81.30
4487;DHT22;2256;48.740;9.106;2022-09-06T10:10:39;33.00;81.10
4487;DHT22;2256;48.740;9.106;2022-09-06T10:13:07;32.60;81.60
4487;DHT22;2256;48.740;9.106;2022-09-06T10:15:39;32.00;81.60
4487;DHT22;2256;48.740;9.106;2022-09-06T10:18:14;31.30;83.00
4487;DHT22;2256;48.740;9.106;2022-09-06T10:20:48;30.70;85.70
4487;DHT22;2256;48.740;9.106;2022-09-06T10:23:18;30.70;87.00
4487;DHT22;2256;48.740;9.106;2022-09-06T10:25:51;30.90;86.50
4487;DHT22;2256;48.740;9.106;2022-09-06T10:28:38;30.90;86.10
4487;DHT22;2256;48.740;9.106;2022-09-06T10:31:28;31.00;87.50
4487;DHT22;2256;48.740;9.106;2022-09-06T10:34:15;31.00;86.40
4487;DHT22;2256;48.740;9.106;2022-09-06T10:36:48;30.80;85.80
4487;DHT22;2256;48.740;9.106;2022-09-06T10:39:37;30.70;86.40
4487;DHT22;2256;48.740;9.106;2022-09-06T10:42:12;30.60;86.00
4487;DHT22;2256;48.740;9.106;2022-09-06T10:45:02;30.30;86.80
4487;DHT22;2256;48.740;9.106;2022-09-06T10:47:43;30.20;87.10
4487;DHT22;2256;48.740;9.106;2022-09-06T10:50:15;30.00;87.60
4487;DHT22;2256;48.740;9.106;2022-09-06T10:52:45;29.80;88.80
4487;DHT22;2256;48.740;9.106;2022-09-06T10:55:17;29.90;89.30
4487;DHT22;2256;48.740;9.106;2022-09-06T10:57:47;29.90;88.40
4487;DHT22;2256;48.740;9.106;2022-09-06T11:00:15;29.90;88.40
4487;DHT22;2256;48.740;9.106;2022-09-06T11:02:47;30.00;87.90
4487;DHT22;2256;48.740;9.106;2022-09-06T11:05:20;30.10;88.50
4487;DHT22;2256;48.740;9.106;2022-09-06T11:07:54;29.90;89.10
4487;DHT22;2256;48.740;9.106;2022-09-06T11:10:23;29.80;90.30
4487;DHT22;2256;48.740;9.106;2022-09-06T11:12:56;29.80;90.40
4487;DHT22;2256;48.740;9.106;2022-09-06T11:15:25;29.80;90.30
4487;DHT22;2256;48.740;9.106;2022-09-06T11:17:57;29.80;90.40
4487;DHT22;2256;48.740;9.106;2022-09-06T11:20:30;29.80;90.20
4487;DHT22;2256;48.740;9.106;2022-09-06T11:23:27;29.90;90.20
4487;DHT22;2256;48.740;9.106;2022-09-06T11:26:24;29.90;90.40
4487;DHT22;2256;48.740;9.106;2022-09-06T11:28:56;30.00;89.40
4487;DHT22;2256;48.740;9.106;2022-09-06T11:31:25;30.00;90.10
4487;DHT22;2256;48.740;9.106;2022-09-06T11:34:08;29.90;90.10
4487;DHT22;2256;48.740;9.106;2022-09-06T11:36:37;29.90;90.00
4487;DHT22;2256;48.740;9.106;2022-09-06T11:39:07;30.00;90.20
4487;DHT22;2256;48.740;9.106;2022-09-06T11:41:36;30.20;90.30
4487;DHT22;2256;48.740;9.106;2022-09-06T11:44:05;30.40;90.10
4487;DHT22;2256;48.740;9.106;2022-09-06T11:46:56;30.50;89.60
4487;DHT22;2256;48.740;9.106;2022-09-06T11:49:36;30.40;90.30
4487;DHT22;2256;48.740;9.106;2022-09-06T11:55:33;30.50;89.00
4487;DHT22;2256;48.740;9.106;2022-09-06T11:58:04;30.60;89.10
4487;DHT22;2256;48.740;9.106;2022-09-06T12:00:31;30.70;87.90
4487;DHT22;2256;48.740;9.106;2022-09-06T12:02:58;30.90;87.60
4487;DHT22;2256;48.740;9.106;2022-09-06T12:05:27;31.00;86.70
4487;DHT22;2256;48.740;9.106;2022-09-06T12:08:25;30.90;87.20
4487;DHT22;2256;48.740;9.106;2022-09-06T12:11:04;30.90;88.10
4487;DHT22;2256;48.740;9.106;2022-09-06T12:13:42;31.10;88.00
4487;DHT22;2256;48.740;9.106;2022-09-06T12:16:13;31.30;86.40
4487;DHT22;2256;48.740;9.106;2022-09-06T12:18:55;31.20;86.50
4487;DHT22;2256;48.740;9.106;2022-09-06T12:21:43;31.00;86.80
4487;DHT22;2256;48.740;9.106;2022-09-06T12:24:50;30.90;85.70
4487;DHT22;2256;48.740;9.106;2022-09-06T12:27:20;31.20;85.40
4487;DHT22;2256;48.740;9.106;2022-09-06T12:29:50;31.70;84.40
4487;DHT22;2256;48.740;9.106;2022-09-06T12:32:23;32.00;83.80
4487;DHT22;2256;48.740;9.106;2022-09-06T12:34:52;32.00;81.20
4487;DHT22;2256;48.740;9.106;2022-09-06T12:37:34;31.90;82.90
4487;DHT22;2256;48.740;9.106;2022-09-06T12:40:02;31.80;82.40
4487;DHT22;2256;48.740;9.106;2022-09-06T12:42:32;31.70;83.70
4487;DHT22;2256;48.740;9.106;2022-09-06T12:45:03;31.90;79.70
4487;DHT22;2256;48.740;9.106;2022-09-06T12:47:32;31.80;78.80
4487;DHT22;2256;48.740;9.106;2022-09-06T12:50:09;31.60;80.30
4487;DHT22;2256;48.740;9.106;2022-09-06T12:52:44;31.30;80.40
4487;DHT22;2256;48.740;9.106;2022-09-06T12:55:22;31.00;82.10
4487;DHT22;2256;48.740;9.106;2022-09-06T12:57:52;30.30;86.60
4487;DHT22;2256;48.740;9.106;2022-09-06T13:00:20;29.70;89.20
4487;DHT22;2256;48.740;9.106;2022-09-06T13:02:55;29.00;90.10
4487;DHT22;2256;48.740;9.106;2022-09-06T13:05:24;28.50;91.30
4487;DHT22;2256;48.740;9.106;2022-09-06T13:07:53;28.10;92.00
4487;DHT22;2256;48.740;9.106;2022-09-06T13:10:23;27.60;92.90
4487;DHT22;2256;48.740;9.106;2022-09-06T13:12:55;27.20;93.60
4487;DHT22;2256;48.740;9.106;2022-09-06T13:15:24;26.90;94.30
4487;DHT22;2256;48.740;9.106;2022-09-06T13:17:53;26.60;95.50
4487;DHT22;2256;48.740;9.106;2022-09-06T13:20:23;26.40;96.80
4487;DHT22;2256;48.740;9.106;2022-09-06T13:22:51;25.90;98.80
4487;DHT22;2256;48.740;9.106;2022-09-06T13:25:24;25.50;99.90
4487;DHT22;2256;48.740;9.106;2022-09-06T13:27:54;25.10;99.90
4487;DHT22;2256;48.740;9.106;2022-09-06T13:30:31;24.60;99.90
4487;DHT22;2256;48.740;9.106;2022-09-06T13:32:58;24.20;99.90
4487;DHT22;2256;48.740;9.106;2022-09-06T13:35:28;24.00;99.90
4487;DHT22;2256;48.740;9.106;2022-09-06T13:38:19;23.90;99.90
4487;DHT22;2256;48.740;9.106;2022-09-06T13:40:48;23.80;99.90
4487;DHT22;2256;48.740;9.106;2022-09-06T13:43:22;23.60;99.90
4487;DHT22;2256;48.740;9.106;2022-09-06T13:46:02;23.30;99.90
4487;DHT22;2256;48.740;9.106;2022-09-06T13:48:29;23.10;99.90
4487;DHT22;2256;48.740;9.106;2022-09-06T13:50:56;23.10;99.90
4487;DHT22;2256;48.740;9.106;2022-09-06T13:53:23;23.20;99.90
4487;DHT22;2256;48.740;9.106;2022-09-06T13:55:51;23.20;99.90
4487;DHT22;2256;48.740;9.106;2022-09-06T13:58:18;23.10;99.90
4487;DHT22;2256;48.740;9.106;2022-09-06T14:00:47;23.20;99.90
4487;DHT22;2256;48.740;9.106;2022-09-06T14:03:23;23.40;99.90
4487;DHT22;2256;48.740;9.106;2022-09-06T14:05:53;23.50;99.90
4487;DHT22;2256;48.740;9.106;2022-09-06T14:08:20;23.60;99.90
4487;DHT22;2256;48.740;9.106;2022-09-06T14:10:47;23.60;99.90
4487;DHT22;2256;48.740;9.106;2022-09-06T14:13:14;23.60;99.90
4487;DHT22;2256;48.740;9.106;2022-09-06T14:15:41;23.70;99.90
4487;DHT22;2256;48.740;9.106;2022-09-06T14:18:09;23.80;99.90
4487;DHT22;2256;48.740;9.106;2022-09-06T14:20:36;24.00;99.90
4487;DHT22;2256;48.740;9.106;2022-09-06T14:23:03;24.40;99.90
4487;DHT22;2256;48.740;9.106;2022-09-06T14:25:33;24.70;99.90
4487;DHT22;2256;48.740;9.106;2022-09-06T14:28:00;24.80;99.90
4487;DHT22;2256;48.740;9.106;2022-09-06T14:30:27;24.90;99.90
4487;DHT22;2256;48.740;9.106;2022-09-06T14:32:54;24.90;99.90
4487;DHT22;2256;48.740;9.106;2022-09-06T14:35:22;25.00;99.90
4487;DHT22;2256;48.740;9.106;2022-09-06T14:37:49;25.30;99.90
4487;DHT22;2256;48.740;9.106;2022-09-06T14:40:16;25.40;99.90
4487;DHT22;2256;48.740;9.106;2022-09-06T14:42:43;25.50;99.90
4487;DHT22;2256;48.740;9.106;2022-09-06T14:45:10;25.60;99.90
4487;DHT22;2256;48.740;9.106;2022-09-06T14:47:37;25.40;99.90
4487;DHT22;2256;48.740;9.106;2022-09-06T14:50:04;25.10;99.90
4487;DHT22;2256;48.740;9.106;2022-09-06T14:52:33;25.10;99.90
4487;DHT22;2256;48.740;9.106;2022-09-06T14:55:00;25.20;99.90
4487;DHT22;2256;48.740;9.106;2022-09-06T14:57:28;25.30;99.90
4487;DHT22;2256;48.740;9.106;2022-09-06T14:59:54;25.40;99.90
4487;DHT22;2256;48.740;9.106;2022-09-06T15:02:21;25.50;99.90
4487;DHT22;2256;48.740;9.106;2022-09-06T15:04:50;25.70;99.90
4487;DHT22;2256;48.740;9.106;2022-09-06T15:07:17;25.90;99.90
4487;DHT22;2256;48.740;9.106;2022-09-06T15:09:45;25.90;99.90
4487;DHT22;2256;48.740;9.106;2022-09-06T15:12:15;25.70;99.90
4487;DHT22;2256;48.740;9.106;2022-09-06T15:14:42;25.30;99.90
4487;DHT22;2256;48.740;9.106;2022-09-06T15:17:09;25.30;99.90
4487;DHT22;2256;48.740;9.106;2022-09-06T15:19:36;25.10;99.90
4487;DHT22;2256;48.740;9.106;2022-09-06T15:22:04;25.00;99.90
4487;DHT22;2256;48.740;9.106;2022-09-06T15:24:32;25.10;99.90
4487;DHT22;2256;48.740;9.106;2022-09-06T15:27:00;25.30;99.90
4487;DHT22;2256;48.740;9.106;2022-09-06T15:29:27;25.50;99.90
4487;DHT22;2256;48.740;9.106;2022-09-06T15:31:54;25.70;99.90
4487;DHT22;2256;48.740;9.106;2022-09-06T15:34:23;25.80;99.90
4487;DHT22;2256;48.740;9.106;2022-09-06T15:36:51;25.80;99.90
4487;DHT22;2256;48.740;9.106;2022-09-06T15:39:18;25.80;99.90
4487;DHT22;2256;48.740;9.106;2022-09-06T15:41:45;25.60;99.90
4487;DHT22;2256;48.740;9.106;2022-09-06T15:44:18;25.50;99.90
4487;DHT22;2256;48.740;9.106;2022-09-06T15:46:48;25.40;99.90
4487;DHT22;2256;48.740;9.106;2022-09-06T15:49:17;25.30;99.90
4487;DHT22;2256;48.740;9.106;2022-09-06T15:51:45;25.20;99.90
4487;DHT22;2256;48.740;9.106;2022-09-06T15:54:13;25.10;99.90
4487;DHT22;2256;48.740;9.106;2022-09-06T15:56:40;25.10;99.90
4487;DHT22;2256;48.740;9.106;2022-09-06T15:59:07;25.10;99.90
4487;DHT22;2256;48.740;9.106;2022-09-06T16:01:36;25.20;99.90
4487;DHT22;2256;48.740;9.106;2022-09-06T16:04:04;25.30;99.90
4487;DHT22;2256;48.740;9.106;2022-09-06T16:06:33;25.40;99.90
4487;DHT22;2256;48.740;9.106;2022-09-06T16:09:03;25.40;99.90
4487;DHT22;2256;48.740;9.106;2022-09-06T16:11:31;25.40;99.90
4487;DHT22;2256;48.740;9.106;2022-09-06T16:14:00;25.40;99.90
4487;DHT22;2256;48.740;9.106;2022-09-06T16:16:27;25.40;99.90
4487;DHT22;2256;48.740;9.106;2022-09-06T16:18:56;25.50;99.90
4487;DHT22;2256;48.740;9.106;2022-09-06T16:21:25;25.40;99.90
4487;DHT22;2256;48.740;9.106;2022-09-06T16:23:55;25.40;99.90
4487;DHT22;2256;48.740;9.106;2022-09-06T16:26:24;25.40;99.90